sensor_id;sensor_type;location;lat;lon;timestamp;pressure;altitude;pressure_sealevel;temperature;humidity
15529;BME280;7866;52.280;9.500;2023-04-30T00:04:24;101037.97;;;7.42;81.23
15529;BME280;7866;52.280;9.500;2023-04-30T00:09:27;101037.56;;;7.26;80.64
15529;BME280;7866;52.280;9.500;2023-04-30T00:14:29;101043.63;;;7.28;81.18
15529;BME280;7866;52.280;9.500;2023-04-30T00:19:30;101037.50;;;7.16;81.08
15529;BME280;7866;52.280;9.500;2023-04-30T00:24:33;101042.59;;;7.19;81.11
15529;BME280;7866;52.280;9.500;2023-04-30T00:29:35;101042.19;;;7.03;80.21
15529;BME280;7866;52.280;9.500;2023-04-30T00:34:37;101043.75;;;7.05;80.08
15529;BME280;7866;52.280;9.500;2023-04-30T00:39:40;101052.13;;;7.01;80.50
15529;BME280;7866;52.280;9.500;2023-04-30T00:44:41;101056.66;;;6.89;80.34
15529;BME280;7866;52.280;9.500;2023-04-30T00:49:43;101059.00;;;6.82;80.66
15529;BME280;7866;52.280;9.500;2023-04-30T00:54:46;101058.41;;;6.79;80.63
15529;BME280;7866;52.280;9.500;2023-04-30T00:59:49;101055.25;;;6.74;81.20
15529;BME280;7866;52.280;9.500;2023-04-30T01:04:51;101067.19;;;6.58;80.82
15529;BME280;7866;52.280;9.500;2023-04-30T01:09:54;101075.28;;;6.57;81.59
15529;BME280;7866;52.280;9.500;2023-04-30T01:15:01;101066.69;;;6.53;81.62
15529;BME280;7866;52.280;9.500;2023-04-30T01:20:06;101073.84;;;6.53;81.10
15529;BME280;7866;52.280;9.500;2023-04-30T01:25:23;101080.13;;;6.52;81.16
15529;BME280;7866;52.280;9.500;2023-04-30T01:30:27;101083.06;;;6.37;81.46
15529;BME280;7866;52.280;9.500;2023-04-30T01:35:43;101086.81;;;6.35;81.10
15529;BME280;7866;52.280;9.500;2023-04-30T01:40:51;101091.31;;;6.34;81.48
15529;BME280;7866;52.280;9.500;2023-04-30T01:46:03;101085.63;;;6.28;82.03
15529;BME280;7866;52.280;9.500;2023-04-30T01:51:14;101093.47;;;6.18;81.53
15529;BME280;7866;52.280;9.500;2023-04-30T01:56:20;101090.81;;;6.18;82.01
15529;BME280;7866;52.280;9.500;2023-04-30T02:01:27;101089.97;;;6.17;81.70
15529;BME280;7866;52.280;9.500;2023-04-30T02:06:30;101097.09;;;6.17;81.59
15529;BME280;7866;52.280;9.500;2023-04-30T02:11:31;101090.84;;;6.07;82.29
15529;BME280;7866;52.280;9.500;2023-04-30T02:16:34;101091.44;;;5.99;81.95
15529;BME280;7866;52.280;9.500;2023-04-30T02:21:36;101095.94;;;5.99;83.26
15529;BME280;7866;52.280;9.500;2023-04-30T02:26:37;101109.09;;;6.00;82.91
15529;BME280;7866;52.280;9.500;2023-04-30T02:31:40;101102.75;;;5.90;82.27
15529;BME280;7866;52.280;9.500;2023-04-30T02:36:42;101104.00;;;5.97;82.72
15529;BME280;7866;52.280;9.500;2023-04-30T02:41:44;101110.75;;;5.79;82.18
15529;BME280;7866;52.280;9.500;2023-04-30T02:46:46;101113.97;;;5.82;82.54
15529;BME280;7866;52.280;9.500;2023-04-30T02:51:48;101114.13;;;5.81;83.03
15529;BME280;7866;52.280;9.500;2023-04-30T02:56:50;101113.41;;;5.79;83.31
15529;BME280;7866;52.280;9.500;2023-04-30T03:01:53;101117.00;;;5.78;83.01
15529;BME280;7866;52.280;9.500;2023-04-30T03:06:55;101116.53;;;5.73;83.47
15529;BME280;7866;52.280;9.500;2023-04-30T03:11:56;101115.31;;;5.65;82.69
15529;BME280;7866;52.280;9.500;2023-04-30T03:16:59;101113.75;;;5.63;83.80
15529;BME280;7866;52.280;9.500;2023-04-30T03:22:01;101115.69;;;5.72;83.89
15529;BME280;7866;52.280;9.500;2023-04-30T03:27:02;101112.06;;;5.73;83.02
15529;BME280;7866;52.280;9.500;2023-04-30T03:32:05;101123.66;;;5.72;82.73
15529;BME280;7866;52.280;9.500;2023-04-30T03:37:07;101112.41;;;5.68;83.21
15529;BME280;7866;52.280;9.500;2023-04-30T03:42:08;101113.25;;;5.69;82.72
15529;BME280;7866;52.280;9.500;2023-04-30T03:47:11;101119.28;;;5.60;82.07
15529;BME280;7866;52.280;9.500;2023-04-30T03:52:13;101124.22;;;5.53;83.22
15529;BME280;7866;52.280;9.500;2023-04-30T03:57:15;101128.81;;;5.51;83.04
15529;BME280;7866;52.280;9.500;2023-04-30T04:02:18;101131.97;;;5.56;83.41
15529;BME280;7866;52.280;9.500;2023-04-30T04:07:20;101134.84;;;5.53;83.72
15529;BME280;7866;52.280;9.500;2023-04-30T04:12:22;101151.00;;;5.50;82.76
15529;BME280;7866;52.280;9.500;2023-04-30T04:17:25;101142.34;;;5.59;82.92
15529;BME280;7866;52.280;9.500;2023-04-30T04:22:26;101145.13;;;5.58;83.54
15529;BME280;7866;52.280;9.500;2023-04-30T04:27:28;101148.28;;;5.63;82.64
15529;BME280;7866;52.280;9.500;2023-04-30T04:32:31;101157.63;;;5.80;83.67
15529;BME280;7866;52.280;9.500;2023-04-30T04:37:41;101151.75;;;6.10;82.20
15529;BME280;7866;52.280;9.500;2023-04-30T04:42:42;101162.13;;;6.58;81.57
15529;BME280;7866;52.280;9.500;2023-04-30T04:47:46;101165.94;;;7.31;79.80
15529;BME280;7866;52.280;9.500;2023-04-30T04:52:48;101163.59;;;8.31;77.16
15529;BME280;7866;52.280;9.500;2023-04-30T04:57:49;101171.25;;;8.45;74.71
15529;BME280;7866;52.280;9.500;2023-04-30T05:02:53;101163.84;;;9.28;72.50
15529;BME280;7866;52.280;9.500;2023-04-30T05:07:54;101170.00;;;9.57;71.09
15529;BME280;7866;52.280;9.500;2023-04-30T05:12:56;101181.88;;;10.11;70.73
15529;BME280;7866;52.280;9.500;2023-04-30T05:17:59;101191.78;;;9.92;70.64
15529;BME280;7866;52.280;9.500;2023-04-30T05:23:00;101190.66;;;10.41;70.20
15529;BME280;7866;52.280;9.500;2023-04-30T05:28:02;101186.88;;;11.17;69.65
15529;BME280;7866;52.280;9.500;2023-04-30T05:33:05;101189.41;;;11.90;67.80
15529;BME280;7866;52.280;9.500;2023-04-30T05:38:07;101190.56;;;12.13;66.30
15529;BME280;7866;52.280;9.500;2023-04-30T05:43:08;101193.16;;;12.31;65.87
15529;BME280;7866;52.280;9.500;2023-04-30T05:48:11;101189.78;;;12.21;65.56
15529;BME280;7866;52.280;9.500;2023-04-30T05:53:13;101189.03;;;12.11;66.05
15529;BME280;7866;52.280;9.500;2023-04-30T05:58:14;101196.28;;;11.74;65.13
15529;BME280;7866;52.280;9.500;2023-04-30T06:03:18;101194.56;;;11.29;66.00
15529;BME280;7866;52.280;9.500;2023-04-30T06:08:19;101202.91;;;11.62;66.18
15529;BME280;7866;52.280;9.500;2023-04-30T06:13:21;101206.97;;;11.30;64.26
15529;BME280;7866;52.280;9.500;2023-04-30T06:18:24;101199.81;;;10.48;67.88
15529;BME280;7866;52.280;9.500;2023-04-30T06:23:26;101212.47;;;9.99;67.50
15529;BME280;7866;52.280;9.500;2023-04-30T06:28:28;101209.06;;;10.26;67.43
15529;BME280;7866;52.280;9.500;2023-04-30T06:33:31;101217.16;;;9.78;66.59
15529;BME280;7866;52.280;9.500;2023-04-30T06:38:32;101214.59;;;10.52;63.44
15529;BME280;7866;52.280;9.500;2023-04-30T06:43:34;101223.34;;;9.49;64.32
15529;BME280;7866;52.280;9.500;2023-04-30T06:48:37;101223.91;;;9.92;65.51
15529;BME280;7866;52.280;9.500;2023-04-30T06:53:38;101215.94;;;10.39;63.22
15529;BME280;7866;52.280;9.500;2023-04-30T06:58:40;101215.81;;;10.30;64.76
15529;BME280;7866;52.280;9.500;2023-04-30T07:03:43;101221.56;;;10.35;63.97
15529;BME280;7866;52.280;9.500;2023-04-30T07:08:45;101217.47;;;10.69;62.33
15529;BME280;7866;52.280;9.500;2023-04-30T07:13:47;101226.72;;;10.84;62.25
15529;BME280;7866;52.280;9.500;2023-04-30T07:18:50;101236.41;;;11.13;62.36
15529;BME280;7866;52.280;9.500;2023-04-30T07:23:52;101226.59;;;10.85;62.40
15529;BME280;7866;52.280;9.500;2023-04-30T07:28:54;101231.13;;;9.62;63.37
15529;BME280;7866;52.280;9.500;2023-04-30T07:33:57;101237.28;;;9.82;64.74
15529;BME280;7866;52.280;9.500;2023-04-30T07:38:58;101223.03;;;10.01;64.22
15529;BME280;7866;52.280;9.500;2023-04-30T07:44:00;101226.31;;;11.06;62.21
15529;BME280;7866;52.280;9.500;2023-04-30T07:49:03;101230.53;;;11.80;59.99
15529;BME280;7866;52.280;9.500;2023-04-30T07:54:05;101238.00;;;11.33;60.01
15529;BME280;7866;52.280;9.500;2023-04-30T07:59:07;101234.00;;;11.55;61.44
15529;BME280;7866;52.280;9.500;2023-04-30T08:04:10;101238.06;;;11.23;61.19
15529;BME280;7866;52.280;9.500;2023-04-30T08:09:11;101237.72;;;10.81;62.46
15529;BME280;7866;52.280;9.500;2023-04-30T08:14:15;101248.22;;;10.65;62.27
15529;BME280;7866;52.280;9.500;2023-04-30T08:19:18;101238.25;;;10.94;62.06
15529;BME280;7866;52.280;9.500;2023-04-30T08:24:19;101237.69;;;11.72;59.40
15529;BME280;7866;52.280;9.500;2023-04-30T08:29:21;101241.91;;;10.93;60.80
15529;BME280;7866;52.280;9.500;2023-04-30T08:34:24;101229.75;;;10.99;60.72
15529;BME280;7866;52.280;9.500;2023-04-30T08:39:25;101227.56;;;11.48;59.29
15529;BME280;7866;52.280;9.500;2023-04-30T08:44:28;101233.78;;;11.30;59.32
15529;BME280;7866;52.280;9.500;2023-04-30T08:49:31;101227.19;;;11.60;58.35
15529;BME280;7866;52.280;9.500;2023-04-30T08:54:34;101219.53;;;11.66;59.12
15529;BME280;7866;52.280;9.500;2023-04-30T08:59:36;101221.28;;;11.93;59.08
15529;BME280;7866;52.280;9.500;2023-04-30T09:04:39;101230.47;;;11.37;57.70
15529;BME280;7866;52.280;9.500;2023-04-30T09:09:41;101235.91;;;11.45;58.20
15529;BME280;7866;52.280;9.500;2023-04-30T09:14:57;101222.97;;;11.76;55.92
15529;BME280;7866;52.280;9.500;2023-04-30T09:20:09;101224.59;;;12.13;55.29
15529;BME280;7866;52.280;9.500;2023-04-30T09:25:11;101218.00;;;12.25;54.70
15529;BME280;7866;52.280;9.500;2023-04-30T09:30:29;101218.13;;;12.92;51.67
15529;BME280;7866;52.280;9.500;2023-04-30T09:35:33;101212.41;;;12.87;54.64
15529;BME280;7866;52.280;9.500;2023-04-30T09:40:36;101205.44;;;12.68;55.25
15529;BME280;7866;52.280;9.500;2023-04-30T09:45:40;101206.59;;;13.16;54.31
15529;BME280;7866;52.280;9.500;2023-04-30T09:50:44;101207.19;;;13.44;53.76
15529;BME280;7866;52.280;9.500;2023-04-30T09:55:47;101205.00;;;12.46;54.18
15529;BME280;7866;52.280;9.500;2023-04-30T10:00:49;101201.81;;;12.85;53.46
15529;BME280;7866;52.280;9.500;2023-04-30T10:05:53;101201.88;;;13.10;52.46
15529;BME280;7866;52.280;9.500;2023-04-30T10:10:58;101201.88;;;13.01;53.59
15529;BME280;7866;52.280;9.500;2023-04-30T10:16:06;101186.13;;;14.13;51.82
15529;BME280;7866;52.280;9.500;2023-04-30T10:21:11;101192.00;;;14.24;51.26
15529;BME280;7866;52.280;9.500;2023-04-30T10:26:14;101189.53;;;13.90;51.33
15529;BME280;7866;52.280;9.500;2023-04-30T10:31:16;101180.91;;;14.11;50.78
15529;BME280;7866;52.280;9.500;2023-04-30T10:36:27;101181.28;;;13.84;49.08
15529;BME280;7866;52.280;9.500;2023-04-30T10:41:31;101177.06;;;13.40;51.50
15529;BME280;7866;52.280;9.500;2023-04-30T10:46:57;101174.56;;;13.47;49.70
15529;BME280;7866;52.280;9.500;2023-04-30T10:52:02;101174.41;;;13.57;49.26
15529;BME280;7866;52.280;9.500;2023-04-30T10:57:10;101162.78;;;13.80;48.01
15529;BME280;7866;52.280;9.500;2023-04-30T11:02:14;101164.91;;;14.18;49.69
15529;BME280;7866;52.280;9.500;2023-04-30T11:07:18;101162.41;;;13.92;48.95
15529;BME280;7866;52.280;9.500;2023-04-30T11:12:20;101144.53;;;14.15;48.12
15529;BME280;7866;52.280;9.500;2023-04-30T11:17:27;101147.47;;;14.53;47.56
15529;BME280;7866;52.280;9.500;2023-04-30T11:22:30;101155.56;;;14.53;47.13
15529;BME280;7866;52.280;9.500;2023-04-30T11:27:36;101150.31;;;14.43;48.28
15529;BME280;7866;52.280;9.500;2023-04-30T11:32:38;101137.69;;;14.44;48.30
15529;BME280;7866;52.280;9.500;2023-04-30T11:37:43;101135.28;;;14.96;47.24
15529;BME280;7866;52.280;9.500;2023-04-30T11:42:46;101134.75;;;15.01;47.80
15529;BME280;7866;52.280;9.500;2023-04-30T11:47:48;101134.34;;;14.81;47.87
15529;BME280;7866;52.280;9.500;2023-04-30T11:52:52;101131.19;;;15.00;47.80
15529;BME280;7866;52.280;9.500;2023-04-30T11:57:56;101124.13;;;15.45;46.46
15529;BME280;7866;52.280;9.500;2023-04-30T12:02:59;101116.63;;;15.33;47.59
15529;BME280;7866;52.280;9.500;2023-04-30T12:08:04;101112.59;;;15.89;46.75
15529;BME280;7866;52.280;9.500;2023-04-30T12:13:07;101109.50;;;15.55;46.23
15529;BME280;7866;52.280;9.500;2023-04-30T12:18:12;101111.94;;;15.49;45.52
15529;BME280;7866;52.280;9.500;2023-04-30T12:23:16;101109.22;;;15.49;46.22
15529;BME280;7866;52.280;9.500;2023-04-30T12:28:17;101106.72;;;15.48;45.13
15529;BME280;7866;52.280;9.500;2023-04-30T12:33:19;101112.50;;;15.60;45.17
15529;BME280;7866;52.280;9.500;2023-04-30T12:38:22;101108.47;;;15.56;45.02
15529;BME280;7866;52.280;9.500;2023-04-30T12:43:24;101101.66;;;15.83;44.10
15529;BME280;7866;52.280;9.500;2023-04-30T12:48:26;101092.47;;;16.21;44.70
15529;BME280;7866;52.280;9.500;2023-04-30T12:53:30;101095.09;;;17.02;43.17
15529;BME280;7866;52.280;9.500;2023-04-30T12:58:32;101072.59;;;16.80;43.16
15529;BME280;7866;52.280;9.500;2023-04-30T13:03:33;101073.81;;;16.78;42.79
15529;BME280;7866;52.280;9.500;2023-04-30T13:08:36;101073.16;;;16.75;42.65
15529;BME280;7866;52.280;9.500;2023-04-30T13:13:39;101068.50;;;16.69;43.80
15529;BME280;7866;52.280;9.500;2023-04-30T13:18:41;101065.78;;;16.69;41.12
15529;BME280;7866;52.280;9.500;2023-04-30T13:23:44;101056.75;;;16.41;42.01
15529;BME280;7866;52.280;9.500;2023-04-30T13:28:46;101047.94;;;17.39;41.54
15529;BME280;7866;52.280;9.500;2023-04-30T13:33:48;101042.63;;;17.53;40.06
15529;BME280;7866;52.280;9.500;2023-04-30T13:38:51;101034.19;;;16.91;39.46
15529;BME280;7866;52.280;9.500;2023-04-30T13:43:53;101036.84;;;17.06;40.30
15529;BME280;7866;52.280;9.500;2023-04-30T13:48:55;101021.34;;;16.36;40.25
15529;BME280;7866;52.280;9.500;2023-04-30T13:53:58;101015.22;;;16.48;39.70
15529;BME280;7866;52.280;9.500;2023-04-30T13:58:59;101006.75;;;16.94;40.06
15529;BME280;7866;52.280;9.500;2023-04-30T14:04:02;101001.00;;;16.76;39.09
15529;BME280;7866;52.280;9.500;2023-04-30T14:09:05;101002.28;;;16.80;39.26
15529;BME280;7866;52.280;9.500;2023-04-30T14:14:07;100987.72;;;16.81;39.30
15529;BME280;7866;52.280;9.500;2023-04-30T14:19:08;100990.78;;;16.57;39.64
15529;BME280;7866;52.280;9.500;2023-04-30T14:24:12;100975.63;;;17.33;39.40
15529;BME280;7866;52.280;9.500;2023-04-30T14:29:15;100969.31;;;17.54;39.41
15529;BME280;7866;52.280;9.500;2023-04-30T14:34:18;100964.88;;;16.90;38.69
15529;BME280;7866;52.280;9.500;2023-04-30T14:39:21;100954.81;;;16.63;39.75
15529;BME280;7866;52.280;9.500;2023-04-30T14:44:23;100947.97;;;17.10;39.66
15529;BME280;7866;52.280;9.500;2023-04-30T14:49:25;100936.78;;;16.91;39.52
15529;BME280;7866;52.280;9.500;2023-04-30T14:54:29;100944.19;;;17.32;38.79
15529;BME280;7866;52.280;9.500;2023-04-30T14:59:30;100940.19;;;17.28;38.14
15529;BME280;7866;52.280;9.500;2023-04-30T15:04:34;100927.63;;;17.55;38.71
15529;BME280;7866;52.280;9.500;2023-04-30T15:09:37;100935.34;;;17.17;39.01
15529;BME280;7866;52.280;9.500;2023-04-30T15:14:38;100933.81;;;17.08;39.03
15529;BME280;7866;52.280;9.500;2023-04-30T15:19:40;100932.69;;;17.30;39.67
15529;BME280;7866;52.280;9.500;2023-04-30T15:24:44;100942.41;;;16.68;40.12
15529;BME280;7866;52.280;9.500;2023-04-30T15:29:45;100930.31;;;17.14;39.74
15529;BME280;7866;52.280;9.500;2023-04-30T15:34:47;100918.16;;;16.32;41.05
15529;BME280;7866;52.280;9.500;2023-04-30T15:39:50;100920.16;;;16.45;41.00
15529;BME280;7866;52.280;9.500;2023-04-30T15:44:52;100910.28;;;16.80;40.95
15529;BME280;7866;52.280;9.500;2023-04-30T15:49:53;100918.91;;;16.47;41.21
15529;BME280;7866;52.280;9.500;2023-04-30T15:54:56;100912.88;;;16.24;41.03
15529;BME280;7866;52.280;9.500;2023-04-30T15:59:58;100906.31;;;16.76;40.62
15529;BME280;7866;52.280;9.500;2023-04-30T16:04:59;100905.44;;;16.75;40.40
15529;BME280;7866;52.280;9.500;2023-04-30T16:10:03;100901.47;;;16.50;41.33
15529;BME280;7866;52.280;9.500;2023-04-30T16:15:07;100898.50;;;16.45;40.86
15529;BME280;7866;52.280;9.500;2023-04-30T16:20:10;100894.53;;;15.83;41.99
15529;BME280;7866;52.280;9.500;2023-04-30T16:25:13;100894.63;;;15.75;42.23
15529;BME280;7866;52.280;9.500;2023-04-30T16:30:15;100884.41;;;15.56;41.97
15529;BME280;7866;52.280;9.500;2023-04-30T16:35:16;100891.56;;;15.78;41.99
15529;BME280;7866;52.280;9.500;2023-04-30T16:40:19;100886.56;;;15.60;41.92
15529;BME280;7866;52.280;9.500;2023-04-30T16:45:21;100875.47;;;15.70;42.32
15529;BME280;7866;52.280;9.500;2023-04-30T16:50:23;100866.16;;;15.58;42.11
15529;BME280;7866;52.280;9.500;2023-04-30T16:55:27;100866.28;;;15.49;42.11
15529;BME280;7866;52.280;9.500;2023-04-30T17:00:29;100862.19;;;15.39;42.32
15529;BME280;7866;52.280;9.500;2023-04-30T17:05:30;100853.50;;;15.43;42.21
15529;BME280;7866;52.280;9.500;2023-04-30T17:10:34;100855.38;;;15.43;42.19
15529;BME280;7866;52.280;9.500;2023-04-30T17:15:35;100857.09;;;15.29;42.36
15529;BME280;7866;52.280;9.500;2023-04-30T17:20:37;100850.56;;;15.09;42.15
15529;BME280;7866;52.280;9.500;2023-04-30T17:25:41;100856.59;;;15.11;42.41
15529;BME280;7866;52.280;9.500;2023-04-30T17:30:42;100856.34;;;15.06;42.42
15529;BME280;7866;52.280;9.500;2023-04-30T17:35:44;100860.78;;;14.98;42.48
15529;BME280;7866;52.280;9.500;2023-04-30T17:40:47;100859.28;;;14.81;43.54
15529;BME280;7866;52.280;9.500;2023-04-30T17:45:49;100862.34;;;14.40;46.96
15529;BME280;7866;52.280;9.500;2023-04-30T17:50:53;100860.19;;;14.13;47.42
15529;BME280;7866;52.280;9.500;2023-04-30T17:55:56;100861.38;;;13.87;48.88
15529;BME280;7866;52.280;9.500;2023-04-30T18:00:58;100852.47;;;13.55;50.06
15529;BME280;7866;52.280;9.500;2023-04-30T18:06:02;100854.56;;;13.37;50.58
15529;BME280;7866;52.280;9.500;2023-04-30T18:11:07;100851.97;;;12.96;51.92
15529;BME280;7866;52.280;9.500;2023-04-30T18:16:08;100858.63;;;12.61;53.30
15529;BME280;7866;52.280;9.500;2023-04-30T18:21:10;100846.03;;;12.45;53.46
15529;BME280;7866;52.280;9.500;2023-04-30T18:26:14;100847.03;;;12.20;53.88
15529;BME280;7866;52.280;9.500;2023-04-30T18:31:16;100853.22;;;11.96;54.49
15529;BME280;7866;52.280;9.500;2023-04-30T18:36:18;100838.38;;;11.67;55.03
15529;BME280;7866;52.280;9.500;2023-04-30T18:41:21;100863.09;;;11.45;55.51
15529;BME280;7866;52.280;9.500;2023-04-30T18:46:23;100857.22;;;11.33;55.80
15529;BME280;7866;52.280;9.500;2023-04-30T18:51:24;100861.19;;;11.29;55.36
15529;BME280;7866;52.280;9.500;2023-04-30T18:56:27;100859.00;;;11.24;56.30
15529;BME280;7866;52.280;9.500;2023-04-30T19:01:29;100858.69;;;10.93;56.93
15529;BME280;7866;52.280;9.500;2023-04-30T19:06:31;100848.31;;;10.72;57.70
15529;BME280;7866;52.280;9.500;2023-04-30T19:11:35;100845.59;;;10.64;57.96
15529;BME280;7866;52.280;9.500;2023-04-30T19:16:36;100858.31;;;10.62;58.40
15529;BME280;7866;52.280;9.500;2023-04-30T19:21:38;100848.63;;;10.43;58.47
15529;BME280;7866;52.280;9.500;2023-04-30T19:26:41;100855.97;;;10.41;58.84
15529;BME280;7866;52.280;9.500;2023-04-30T19:31:42;100855.34;;;10.47;58.47
15529;BME280;7866;52.280;9.500;2023-04-30T19:36:44;100851.63;;;10.40;57.76
15529;BME280;7866;52.280;9.500;2023-04-30T19:41:48;100856.78;;;10.33;57.79
15529;BME280;7866;52.280;9.500;2023-04-30T19:46:50;100856.25;;;10.20;57.79
15529;BME280;7866;52.280;9.500;2023-04-30T19:51:52;100851.63;;;10.22;57.73
15529;BME280;7866;52.280;9.500;2023-04-30T19:56:55;100844.56;;;10.21;57.16
15529;BME280;7866;52.280;9.500;2023-04-30T20:01:57;100836.16;;;10.16;57.83
15529;BME280;7866;52.280;9.500;2023-04-30T20:06:59;100835.19;;;9.99;58.57
15529;BME280;7866;52.280;9.500;2023-04-30T20:12:03;100828.38;;;9.87;59.87
15529;BME280;7866;52.280;9.500;2023-04-30T20:17:04;100826.53;;;9.87;59.43
15529;BME280;7866;52.280;9.500;2023-04-30T20:22:06;100827.75;;;9.75;59.63
15529;BME280;7866;52.280;9.500;2023-04-30T20:27:13;100826.63;;;9.78;58.83
15529;BME280;7866;52.280;9.500;2023-04-30T20:32:15;100826.63;;;9.78;59.46
15529;BME280;7866;52.280;9.500;2023-04-30T20:37:17;100819.97;;;9.82;58.58
15529;BME280;7866;52.280;9.500;2023-04-30T20:42:20;100825.25;;;9.74;58.77
15529;BME280;7866;52.280;9.500;2023-04-30T20:47:21;100825.00;;;9.67;59.24
15529;BME280;7866;52.280;9.500;2023-04-30T20:52:23;100818.03;;;9.56;59.79
15529;BME280;7866;52.280;9.500;2023-04-30T20:57:26;100809.88;;;9.58;59.33
15529;BME280;7866;52.280;9.500;2023-04-30T21:02:28;100809.38;;;9.45;59.92
15529;BME280;7866;52.280;9.500;2023-04-30T21:07:30;100807.16;;;9.40;59.56
15529;BME280;7866;52.280;9.500;2023-04-30T21:12:35;100804.09;;;9.35;59.96
15529;BME280;7866;52.280;9.500;2023-04-30T21:17:36;100800.63;;;9.25;60.28
15529;BME280;7866;52.280;9.500;2023-04-30T21:22:38;100799.41;;;9.19;60.09
15529;BME280;7866;52.280;9.500;2023-04-30T21:27:59;100798.84;;;9.16;60.45
15529;BME280;7866;52.280;9.500;2023-04-30T21:33:01;100797.88;;;9.17;60.31
15529;BME280;7866;52.280;9.500;2023-04-30T21:38:04;100793.88;;;9.03;60.78
15529;BME280;7866;52.280;9.500;2023-04-30T21:43:07;100782.34;;;9.02;60.91
15529;BME280;7866;52.280;9.500;2023-04-30T21:48:09;100790.53;;;8.91;61.22
15529;BME280;7866;52.280;9.500;2023-04-30T21:53:10;100781.69;;;8.91;61.52
15529;BME280;7866;52.280;9.500;2023-04-30T21:58:13;100783.56;;;8.80;62.02
15529;BME280;7866;52.280;9.500;2023-04-30T22:03:15;100777.38;;;8.80;62.02
15529;BME280;7866;52.280;9.500;2023-04-30T22:08:17;100781.22;;;8.68;62.49
15529;BME280;7866;52.280;9.500;2023-04-30T22:13:20;100771.66;;;8.65;62.74
15529;BME280;7866;52.280;9.500;2023-04-30T22:18:22;100766.47;;;8.63;62.79
15529;BME280;7866;52.280;9.500;2023-04-30T22:23:24;100766.66;;;8.52;63.34
15529;BME280;7866;52.280;9.500;2023-04-30T22:28:27;100763.72;;;8.46;63.33
15529;BME280;7866;52.280;9.500;2023-04-30T22:33:32;100761.47;;;8.41;64.17
15529;BME280;7866;52.280;9.500;2023-04-30T22:38:35;100757.97;;;8.41;64.18
15529;BME280;7866;52.280;9.500;2023-04-30T22:43:38;100754.88;;;8.35;64.12
15529;BME280;7866;52.280;9.500;2023-04-30T22:48:40;100756.28;;;8.39;63.41
15529;BME280;7866;52.280;9.500;2023-04-30T22:53:43;100749.63;;;8.53;63.29
15529;BME280;7866;52.280;9.500;2023-04-30T22:58:46;100748.41;;;8.48;63.10
15529;BME280;7866;52.280;9.500;2023-04-30T23:03:48;100741.28;;;8.38;63.29
15529;BME280;7866;52.280;9.500;2023-04-30T23:08:49;100742.38;;;8.36;63.60
15529;BME280;7866;52.280;9.500;2023-04-30T23:13:53;100737.63;;;8.30;63.45
15529;BME280;7866;52.280;9.500;2023-04-30T23:18:55;100736.75;;;8.29;64.12
15529;BME280;7866;52.280;9.500;2023-04-30T23:23:57;100735.56;;;8.14;64.15
15529;BME280;7866;52.280;9.500;2023-04-30T23:29:00;100729.47;;;8.22;64.40
15529;BME280;7866;52.280;9.500;2023-04-30T23:34:02;100723.97;;;8.33;63.86
15529;BME280;7866;52.280;9.500;2023-04-30T23:39:03;100719.34;;;8.25;63.79
15529;BME280;7866;52.280;9.500;2023-04-30T23:44:06;100717.28;;;8.19;63.97
15529;BME280;7866;52.280;9.500;2023-04-30T23:49:08;100714.50;;;8.11;63.52
15529;BME280;7866;52.280;9.500;2023-04-30T23:54:10;100715.63;;;7.89;64.45
15529;BME280;7866;52.280;9.500;2023-04-30T23:59:13;100703.84;;;7.82;64.71
